Time;durP1;ratioP1;P1;durP2;ratioP2;P2;SDS_P1;SDS_P2;PMS_P1;PMS_P2;Temp;Humidity;BMP_temperature;BMP_pressure;BME280_temperature;BME280_humidity;BME280_pressure;Samples;Min_cycle;Max_cycle;Signal;HPM_P1;HPM_P2
2021/10/02 00:44:40;;;;;;;18.10;11.30;;;7.10;99.90;;;;;;5050821;28;20025;-83
2021/10/02 00:47:11;;;;;;;17.10;10.82;;;7.00;99.90;;;;;;5055460;28;20028;-82
2021/10/02 00:49:39;;;;;;;16.65;11.13;;;7.00;99.90;;;;;;5053830;28;20112;-83
2021/10/02 00:52:08;;;;;;;15.45;10.10;;;7.00;99.90;;;;;;5035412;28;20029;-83
2021/10/02 00:54:34;;;;;;;18.88;10.48;;;7.00;99.90;;;;;;5046774;28;20024;-83
2021/10/02 00:57:01;;;;;;;19.58;10.80;;;6.90;99.90;;;;;;5053708;28;20418;-83
2021/10/02 00:59:30;;;;;;;17.38;10.75;;;6.90;99.90;;;;;;5055004;28;20398;-83
2021/10/02 01:02:02;;;;;;;16.98;10.13;;;6.90;99.90;;;;;;5053748;28;20115;-83
2021/10/02 01:05:06;;;;;;;18.30;10.85;;;6.80;99.90;;;;;;5053728;28;20021;-83
2021/10/02 01:07:37;;;;;;;15.98;9.77;;;6.80;99.90;;;;;;5016275;28;20034;-83
2021/10/02 01:10:24;;;;;;;18.20;10.82;;;6.80;99.90;;;;;;5033136;28;20033;-83
2021/10/02 01:12:56;;;;;;;18.00;10.57;;;6.80;99.90;;;;;;5072798;28;20040;-83
2021/10/02 01:15:46;;;;;;;16.13;10.23;;;6.80;99.90;;;;;;5052766;28;20056;-83
2021/10/02 01:18:29;;;;;;;15.52;9.43;;;6.80;99.90;;;;;;5052959;28;20128;-83
2021/10/02 01:21:16;;;;;;;17.75;9.73;;;6.80;99.90;;;;;;5054600;28;20024;-83
2021/10/02 01:24:01;;;;;;;12.23;8.77;;;6.70;99.90;;;;;;5054287;28;20173;-83
2021/10/02 01:27:11;;;;;;;14.40;9.48;;;6.70;99.90;;;;;;5053715;28;20025;-83
2021/10/02 01:29:38;;;;;;;14.23;9.00;;;6.70;99.90;;;;;;5033291;28;20383;-83
2021/10/02 01:32:16;;;;;;;14.48;8.90;;;6.70;99.90;;;;;;5045483;28;20471;-83
2021/10/02 01:48:15;;;;;;;13.20;9.02;;;6.70;99.90;;;;;;5054306;28;20028;-83
2021/10/02 01:50:44;;;;;;;12.63;9.40;;;6.70;99.90;;;;;;5054165;28;20025;-83
2021/10/02 01:53:11;;;;;;;12.70;8.73;;;6.70;99.90;;;;;;5052608;28;20025;-83
2021/10/02 01:55:38;;;;;;;13.82;9.23;;;6.70;99.90;;;;;;5053342;28;20040;-83
2021/10/02 01:58:07;;;;;;;15.23;9.27;;;6.70;99.90;;;;;;5052708;28;20019;-83
2021/10/02 02:00:37;;;;;;;15.98;9.55;;;6.70;99.90;;;;;;5053521;28;20046;-83
2021/10/02 02:03:05;;;;;;;13.63;9.45;;;6.70;99.90;;;;;;5053935;28;20029;-83
2021/10/02 02:05:34;;;;;;;12.85;9.25;;;6.70;99.90;;;;;;5052543;28;20063;-83
2021/10/02 02:08:03;;;;;;;12.35;8.80;;;6.60;99.90;;;;;;5052560;28;20115;-83
2021/10/02 02:10:30;;;;;;;14.63;8.30;;;6.70;99.90;;;;;;5053282;28;20112;-83
2021/10/02 02:12:59;;;;;;;12.57;9.50;;;6.70;99.90;;;;;;5053683;28;20053;-83
2021/10/02 02:15:27;;;;;;;10.63;8.57;;;6.60;99.90;;;;;;5052349;28;20025;-83
2021/10/02 02:18:07;;;;;;;11.07;8.50;;;6.60;99.90;;;;;;5053646;28;20063;-82
2021/10/02 02:21:01;;;;;;;14.45;8.73;;;6.60;99.90;;;;;;5053605;28;20517;-83
2021/10/02 02:23:28;;;;;;;14.68;9.32;;;6.60;99.90;;;;;;5037302;28;20037;-83
2021/10/02 02:25:55;;;;;;;13.45;9.05;;;6.50;99.90;;;;;;5051717;28;20017;-83
2021/10/02 02:28:22;;;;;;;15.52;8.63;;;6.50;99.90;;;;;;5051739;28;20046;-83
2021/10/02 02:30:48;;;;;;;12.68;8.93;;;6.50;99.90;;;;;;5052039;28;20032;-83
2021/10/02 02:33:18;;;;;;;15.32;9.75;;;6.50;99.90;;;;;;5051367;28;20435;-83
2021/10/02 02:35:44;;;;;;;12.85;8.25;;;6.50;99.90;;;;;;5053117;28;20063;-83
2021/10/02 02:38:10;;;;;;;12.00;8.85;;;6.50;99.90;;;;;;5051973;28;20076;-83
2021/10/02 02:40:36;;;;;;;11.50;8.75;;;6.50;99.90;;;;;;5052239;28;20067;-83
2021/10/02 02:43:02;;;;;;;13.18;8.73;;;6.40;99.90;;;;;;5051419;28;20056;-83
2021/10/02 02:45:27;;;;;;;13.05;8.75;;;6.50;99.90;;;;;;5051894;28;20029;-83
2021/10/02 02:48:11;;;;;;;14.43;9.38;;;6.50;99.90;;;;;;5051842;28;20021;-83
2021/10/02 02:50:48;;;;;;;13.32;9.48;;;6.40;99.90;;;;;;5051883;28;20021;-83
2021/10/02 02:53:35;;;;;;;10.77;8.07;;;6.40;99.90;;;;;;5052067;28;20033;-83
2021/10/02 02:56:13;;;;;;;12.88;9.40;;;6.40;99.90;;;;;;5052315;28;20025;-83
2021/10/02 02:58:40;;;;;;;11.98;8.77;;;6.40;99.90;;;;;;5052955;28;20100;-83
2021/10/02 03:01:07;;;;;;;10.38;7.53;;;6.40;99.90;;;;;;5051488;28;20486;-83
2021/10/02 03:03:36;;;;;;;12.25;8.75;;;6.40;99.90;;;;;;5051455;28;20029;-82
2021/10/02 03:06:09;;;;;;;11.70;8.57;;;6.40;99.90;;;;;;5051669;28;20100;-83
2021/10/02 03:08:37;;;;;;;11.95;8.93;;;6.40;99.90;;;;;;5051326;28;20032;-83
2021/10/02 03:11:04;;;;;;;14.15;8.93;;;6.40;99.90;;;;;;5052916;28;20029;-82
2021/10/02 03:13:36;;;;;;;12.90;8.75;;;6.40;99.90;;;;;;5050697;28;20090;-83
2021/10/02 03:16:04;;;;;;;11.48;8.23;;;6.40;99.90;;;;;;5051611;28;20033;-82
2021/10/02 03:18:33;;;;;;;13.70;8.77;;;6.50;99.90;;;;;;5051411;28;20043;-83
2021/10/02 03:21:00;;;;;;;14.43;9.38;;;6.50;99.90;;;;;;5051551;28;20488;-83
2021/10/02 03:23:29;;;;;;;12.40;8.90;;;6.40;99.90;;;;;;5052580;28;20048;-83
2021/10/02 03:25:56;;;;;;;13.32;9.40;;;6.40;99.90;;;;;;5052748;28;20036;-83
2021/10/02 03:28:22;;;;;;;9.70;7.90;;;6.40;99.90;;;;;;5050229;28;20021;-83
2021/10/02 03:30:49;;;;;;;12.50;9.02;;;6.40;99.90;;;;;;5048277;28;20102;-83
2021/10/02 03:33:15;;;;;;;11.25;8.75;;;6.40;99.90;;;;;;5043915;28;20079;-83
2021/10/02 03:35:42;;;;;;;13.60;9.13;;;6.40;99.90;;;;;;5031407;28;20034;-83
2021/10/02 03:38:08;;;;;;;12.20;8.55;;;6.40;99.90;;;;;;5046987;28;20474;-83
2021/10/02 03:40:33;;;;;;;13.48;9.80;;;6.30;99.90;;;;;;5050326;28;20069;-83
2021/10/02 03:42:59;;;;;;;10.55;8.57;;;6.40;99.90;;;;;;5052808;28;20020;-83
2021/10/02 03:45:27;;;;;;;12.82;8.88;;;6.40;99.90;;;;;;5056536;28;20478;-82
2021/10/02 03:47:53;;;;;;;11.50;8.55;;;6.30;99.90;;;;;;5055222;28;20025;-83
2021/10/02 03:50:20;;;;;;;11.05;8.75;;;6.40;99.90;;;;;;5056385;28;20026;-83
2021/10/02 03:52:46;;;;;;;13.13;9.07;;;6.40;99.90;;;;;;5055098;28;20021;-83
2021/10/02 03:55:14;;;;;;;11.57;8.77;;;6.40;99.90;;;;;;5055044;28;20036;-83
2021/10/02 03:57:40;;;;;;;14.23;10.25;;;6.50;99.90;;;;;;5056257;28;20025;-83
2021/10/02 04:00:08;;;;;;;15.35;10.93;;;6.60;99.90;;;;;;5054990;28;20017;-83
2021/10/02 04:02:33;;;;;;;12.48;9.75;;;6.60;99.90;;;;;;5055990;28;20037;-83
2021/10/02 04:05:00;;;;;;;14.13;10.75;;;6.60;99.90;;;;;;5054015;28;20028;-83
2021/10/02 04:07:25;;;;;;;16.15;10.55;;;6.70;99.90;;;;;;5054825;28;20025;-83
2021/10/02 04:09:51;;;;;;;15.25;10.27;;;6.70;99.90;;;;;;5054809;28;20078;-82
2021/10/02 04:12:17;;;;;;;16.45;10.75;;;6.70;99.90;;;;;;5053767;28;20087;-83
2021/10/02 04:14:42;;;;;;;16.50;10.60;;;6.70;99.90;;;;;;5035606;28;20034;-83
2021/10/02 04:17:08;;;;;;;15.75;9.90;;;6.80;99.90;;;;;;5036100;28;20479;-83
2021/10/02 04:19:34;;;;;;;14.45;9.48;;;6.80;99.90;;;;;;5050368;28;20059;-83
2021/10/02 04:22:00;;;;;;;13.40;9.40;;;6.80;99.90;;;;;;5055827;28;20048;-83
2021/10/02 04:24:26;;;;;;;13.23;9.98;;;6.80;99.90;;;;;;5054670;28;20033;-83
2021/10/02 04:26:53;;;;;;;15.63;9.77;;;6.70;99.90;;;;;;5055802;28;20037;-83
2021/10/02 04:29:19;;;;;;;11.27;9.27;;;6.80;99.90;;;;;;5055281;28;20017;-83
2021/10/02 04:31:44;;;;;;;13.77;8.77;;;6.70;99.90;;;;;;5054396;28;20016;-83
2021/10/02 04:34:10;;;;;;;11.38;8.25;;;6.70;99.90;;;;;;5054431;28;20033;-83
2021/10/02 04:36:35;;;;;;;10.80;8.13;;;6.70;99.90;;;;;;5054023;28;20069;-83
2021/10/02 04:39:02;;;;;;;12.52;8.18;;;6.60;99.90;;;;;;5054111;28;20028;-83
2021/10/02 04:41:28;;;;;;;10.30;7.97;;;6.70;99.90;;;;;;5054474;28;21204;-83
2021/10/02 04:43:54;;;;;;;14.02;8.43;;;6.70;99.90;;;;;;5067794;28;20022;-83
2021/10/02 04:46:20;;;;;;;11.98;8.55;;;6.70;99.90;;;;;;5034202;28;20018;-83
2021/10/02 04:48:47;;;;;;;16.25;9.15;;;6.70;99.90;;;;;;5035371;28;20032;-83
2021/10/02 04:51:13;;;;;;;12.07;8.60;;;6.70;99.90;;;;;;5067485;28;20080;-83
2021/10/02 04:53:39;;;;;;;10.88;8.45;;;6.70;99.90;;;;;;5033999;28;20022;-83
2021/10/02 04:56:08;;;;;;;14.10;9.10;;;6.60;99.90;;;;;;5067426;28;20027;-83
2021/10/02 04:58:34;;;;;;;12.50;9.00;;;6.60;99.90;;;;;;5038348;28;20045;-83
2021/10/02 05:01:00;;;;;;;11.45;7.90;;;6.50;99.90;;;;;;5053902;28;20057;-83
2021/10/02 05:03:26;;;;;;;14.20;9.38;;;6.50;99.90;;;;;;5053605;28;20123;-83
2021/10/02 05:05:51;;;;;;;14.00;9.00;;;6.50;99.90;;;;;;5055166;28;20078;-83
2021/10/02 05:08:18;;;;;;;14.73;9.57;;;6.40;99.90;;;;;;5054954;28;20032;-83
2021/10/02 05:10:44;;;;;;;11.93;8.85;;;6.40;99.90;;;;;;5054857;28;20048;-83
2021/10/02 05:13:10;;;;;;;14.05;9.60;;;6.40;99.90;;;;;;5054822;28;20071;-83
2021/10/02 05:15:37;;;;;;;11.38;9.13;;;6.40;99.90;;;;;;5053496;28;20489;-83
2021/10/02 05:18:02;;;;;;;12.45;8.80;;;6.40;99.90;;;;;;5053519;28;20382;-83
2021/10/02 05:20:29;;;;;;;11.70;8.60;;;6.40;99.90;;;;;;5053462;28;20021;-83
2021/10/02 05:22:58;;;;;;;13.30;8.18;;;6.40;99.90;;;;;;5054621;28;20025;-83
2021/10/02 05:25:24;;;;;;;11.75;9.07;;;6.50;99.90;;;;;;5054644;28;20025;-83
2021/10/02 05:27:49;;;;;;;13.85;9.40;;;6.50;99.90;;;;;;5054668;28;20100;-82
2021/10/02 05:30:15;;;;;;;17.95;10.82;;;6.60;99.90;;;;;;5052596;28;20102;-83
2021/10/02 05:32:41;;;;;;;12.32;9.18;;;6.60;99.90;;;;;;5053267;28;20504;-83
2021/10/02 05:35:07;;;;;;;15.07;10.65;;;6.60;99.90;;;;;;5054514;28;20115;-83
2021/10/02 05:37:33;;;;;;;15.48;10.52;;;6.70;99.90;;;;;;5053143;28;20025;-83
2021/10/02 05:39:58;;;;;;;14.10;9.48;;;6.80;99.90;;;;;;5054343;28;20033;-83
2021/10/02 05:42:24;;;;;;;14.02;9.98;;;6.80;99.90;;;;;;5054214;28;20044;-83
2021/10/02 05:44:50;;;;;;;15.02;10.55;;;6.90;99.90;;;;;;5054273;28;20076;-83
2021/10/02 05:47:16;;;;;;;16.15;10.07;;;6.90;99.90;;;;;;5054218;28;20025;-83
2021/10/02 05:49:41;;;;;;;15.82;10.70;;;7.00;99.90;;;;;;5052892;28;20545;-83
2021/10/02 05:52:09;;;;;;;15.50;10.25;;;7.10;99.90;;;;;;5053926;28;20525;-83
2021/10/02 05:54:36;;;;;;;12.68;9.35;;;7.20;99.90;;;;;;5052663;28;20029;-83
2021/10/02 05:57:02;;;;;;;15.50;10.15;;;7.30;99.90;;;;;;5054143;28;20534;-83
2021/10/02 05:59:28;;;;;;;14.40;9.88;;;7.40;99.90;;;;;;5052627;28;20115;-83
2021/10/02 06:01:54;;;;;;;14.40;9.02;;;7.50;99.90;;;;;;5052683;28;20536;-83
2021/10/02 06:04:19;;;;;;;15.32;10.20;;;7.60;99.90;;;;;;5052509;28;20089;-83
2021/10/02 06:06:45;;;;;;;12.15;10.43;;;7.70;99.90;;;;;;5052214;28;20017;-83
2021/10/02 06:09:11;;;;;;;14.65;9.63;;;7.90;99.90;;;;;;5053892;28;20028;-83
2021/10/02 06:11:36;;;;;;;13.15;9.80;;;8.00;99.90;;;;;;5053764;28;20504;-83
2021/10/02 06:14:02;;;;;;;14.52;10.02;;;8.20;99.90;;;;;;5052463;28;20033;-83
2021/10/02 06:16:28;;;;;;;15.20;10.57;;;8.30;99.90;;;;;;5052356;28;20119;-83
2021/10/02 06:18:53;;;;;;;14.65;9.48;;;8.40;99.90;;;;;;5053570;28;20049;-83
2021/10/02 06:21:19;;;;;;;13.70;10.23;;;8.60;99.90;;;;;;5054728;28;20048;-83
2021/10/02 06:23:45;;;;;;;12.50;9.30;;;8.70;99.90;;;;;;5052117;28;20028;-83
2021/10/02 06:26:11;;;;;;;14.05;9.50;;;8.80;99.90;;;;;;5053584;28;20044;-83
2021/10/02 06:28:37;;;;;;;13.35;8.75;;;8.90;99.90;;;;;;5053236;28;20013;-83
2021/10/02 06:31:03;;;;;;;11.38;8.63;;;9.10;99.90;;;;;;5052205;28;20019;-83
2021/10/02 06:33:29;;;;;;;12.52;8.52;;;9.20;99.90;;;;;;5052028;28;20025;-83
2021/10/02 06:35:55;;;;;;;12.43;8.25;;;9.30;99.90;;;;;;5053174;28;20053;-83
2021/10/02 06:38:21;;;;;;;11.80;8.30;;;9.50;99.90;;;;;;5051849;28;20114;-83
2021/10/02 06:40:47;;;;;;;12.85;8.25;;;9.70;99.90;;;;;;5053284;28;20535;-83
2021/10/02 06:43:13;;;;;;;10.65;8.05;;;9.80;99.90;;;;;;5053043;28;20029;-84
2021/10/02 06:45:41;;;;;;;12.35;8.43;;;10.00;99.90;;;;;;5053478;28;20445;-83
2021/10/02 06:48:07;;;;;;;10.60;8.00;;;10.10;99.90;;;;;;5051907;28;20474;-83
2021/10/02 06:50:34;;;;;;;10.90;7.47;;;10.30;99.90;;;;;;5051546;28;20025;-83
2021/10/02 06:53:01;;;;;;;13.15;8.10;;;10.40;99.90;;;;;;5051817;28;20116;-83
2021/10/02 06:55:27;;;;;;;11.27;8.07;;;10.50;99.90;;;;;;5051708;28;20029;-83
2021/10/02 06:57:53;;;;;;;10.63;8.50;;;10.60;99.90;;;;;;5053003;28;20027;-83
2021/10/02 07:00:18;;;;;;;11.55;8.02;;;10.80;99.90;;;;;;5051676;28;20539;-83
2021/10/02 07:02:45;;;;;;;10.73;8.10;;;10.90;99.90;;;;;;5052892;28;20383;-83
2021/10/02 07:05:12;;;;;;;12.93;9.52;;;11.00;99.90;;;;;;5052750;28;20021;-84
2021/10/02 07:07:40;;;;;;;9.30;7.35;;;11.10;99.90;;;;;;5052815;28;20524;-83
2021/10/02 07:10:07;;;;;;;13.25;9.70;;;11.30;99.90;;;;;;5052793;28;20021;-84
2021/10/02 07:12:33;;;;;;;9.23;7.13;;;11.40;99.90;;;;;;5052715;28;20029;-83
2021/10/02 07:14:58;;;;;;;9.50;7.30;;;11.60;99.90;;;;;;5051526;28;20070;-83
2021/10/02 07:17:24;;;;;;;13.73;8.18;;;11.80;99.90;;;;;;5050363;28;20051;-84
2021/10/02 07:19:50;;;;;;;14.38;7.90;;;11.90;99.90;;;;;;5051164;28;20098;-84
2021/10/02 07:22:17;;;;;;;9.63;6.72;;;12.10;99.90;;;;;;5050692;28;20033;-84
2021/10/02 07:24:42;;;;;;;12.05;7.30;;;12.20;99.90;;;;;;5050937;28;20025;-84
2021/10/02 07:27:08;;;;;;;8.48;7.15;;;12.40;99.90;;;;;;5051406;28;20475;-84
2021/10/02 07:29:34;;;;;;;12.40;7.85;;;12.60;99.90;;;;;;5050844;28;20013;-84
2021/10/02 07:31:59;;;;;;;9.25;7.15;;;12.70;99.90;;;;;;5051377;28;20090;-84
2021/10/02 07:34:25;;;;;;;10.52;7.07;;;12.90;99.90;;;;;;5050028;28;20033;-84
2021/10/02 07:36:51;;;;;;;8.05;6.75;;;13.00;99.90;;;;;;5050575;28;20017;-84
2021/10/02 07:39:17;;;;;;;9.98;7.05;;;13.20;99.90;;;;;;5050203;28;20028;-84
2021/10/02 07:41:46;;;;;;;10.30;7.80;;;13.30;99.90;;;;;;5051989;28;20407;-84
2021/10/02 07:44:13;;;;;;;8.85;6.93;;;13.40;99.90;;;;;;5050065;28;20566;-84
2021/10/02 07:46:48;;;;;;;10.82;7.10;;;13.60;99.90;;;;;;5051203;28;20040;-84
2021/10/02 07:49:16;;;;;;;11.98;7.82;;;13.70;99.90;;;;;;5051181;28;20112;-84
2021/10/02 07:51:44;;;;;;;9.23;7.50;;;13.80;99.90;;;;;;5049203;28;20032;-84
2021/10/02 07:54:10;;;;;;;9.35;7.20;;;14.00;99.90;;;;;;5050336;28;20049;-84
2021/10/02 07:56:37;;;;;;;10.25;7.70;;;14.10;99.90;;;;;;5048779;28;20021;-84
2021/10/02 07:59:06;;;;;;;12.20;8.95;;;14.20;99.90;;;;;;5047844;28;20104;-84
2021/10/02 08:01:33;;;;;;;16.00;9.10;;;14.40;99.90;;;;;;5048075;28;20112;-85
2021/10/02 08:04:03;;;;;;;15.68;10.65;;;14.50;99.90;;;;;;5081795;28;20394;-85
2021/10/02 08:06:30;;;;;;;12.00;9.23;;;14.60;99.90;;;;;;5048773;28;20025;-85
2021/10/02 08:08:57;;;;;;;13.95;9.85;;;14.70;99.90;;;;;;5048883;28;20029;-85
2021/10/02 08:11:22;;;;;;;13.73;9.90;;;14.90;99.90;;;;;;5048961;28;20440;-85
2021/10/02 08:13:48;;;;;;;12.40;9.32;;;15.00;99.90;;;;;;5048907;28;20025;-85
2021/10/02 08:16:16;;;;;;;15.13;10.75;;;15.10;99.90;;;;;;5050444;28;20545;-85
2021/10/02 08:18:44;;;;;;;13.07;10.90;;;15.20;99.90;;;;;;5050041;28;20028;-85
2021/10/02 08:21:11;;;;;;;18.08;12.02;;;15.30;99.90;;;;;;5052086;28;20033;-85
2021/10/02 08:23:38;;;;;;;15.30;12.68;;;15.40;99.90;;;;;;5050759;28;20047;-85
2021/10/02 08:26:05;;;;;;;17.02;10.88;;;15.50;99.90;;;;;;5050841;28;20100;-85
2021/10/02 08:28:33;;;;;;;16.33;12.50;;;15.60;99.90;;;;;;5052934;28;20035;-85
2021/10/02 08:31:03;;;;;;;16.95;13.63;;;15.70;99.90;;;;;;5054418;28;20024;-85
2021/10/02 08:33:29;;;;;;;15.32;12.52;;;15.80;99.90;;;;;;5055574;28;20052;-85
2021/10/02 08:35:55;;;;;;;19.45;13.27;;;15.80;99.90;;;;;;5055708;28;20388;-85
2021/10/02 08:38:21;;;;;;;14.98;11.88;;;15.90;97.40;;;;;;5055508;28;20496;-85
2021/10/02 08:40:48;;;;;;;16.17;12.02;;;15.80;94.40;;;;;;5055568;28;20043;-86
2021/10/02 08:43:15;;;;;;;16.90;12.20;;;15.80;95.00;;;;;;5054845;28;20094;-86
2021/10/02 08:45:41;;;;;;;19.33;12.65;;;15.90;96.90;;;;;;5052194;28;20025;-86
2021/10/02 08:48:13;;;;;;;20.92;12.55;;;16.10;99.90;;;;;;5053426;28;20025;-86
2021/10/02 08:50:41;;;;;;;20.83;12.70;;;16.00;91.80;;;;;;5054899;28;20025;-86
2021/10/02 08:53:07;;;;;;;20.67;14.38;;;16.00;93.60;;;;;;5053532;28;20359;-86
2021/10/02 08:55:34;;;;;;;18.70;13.65;;;16.10;96.70;;;;;;5053588;28;20102;-86
2021/10/02 08:58:01;;;;;;;19.20;12.85;;;16.30;95.20;;;;;;5052973;28;20087;-86
2021/10/02 09:00:29;;;;;;;19.23;13.82;;;16.40;94.90;;;;;;5053490;28;20474;-86
2021/10/02 09:02:56;;;;;;;16.38;13.02;;;16.40;91.30;;;;;;5038068;28;20029;-86
2021/10/02 09:05:23;;;;;;;18.70;13.38;;;16.50;91.30;;;;;;5053821;28;20021;-86
2021/10/02 09:07:53;;;;;;;15.88;11.82;;;16.50;90.50;;;;;;5053399;28;20041;-86
2021/10/02 09:10:20;;;;;;;21.23;13.35;;;16.60;88.60;;;;;;5053940;28;20017;-87
2021/10/02 09:12:47;;;;;;;17.98;12.50;;;16.60;87.10;;;;;;5054646;28;20029;-86
2021/10/02 09:15:14;;;;;;;16.92;13.35;;;16.70;89.50;;;;;;5054634;28;20481;-87
2021/10/02 09:17:40;;;;;;;22.08;13.60;;;16.70;87.80;;;;;;5054316;28;20079;-86
2021/10/02 09:20:08;;;;;;;16.95;12.48;;;16.70;86.50;;;;;;5054677;28;20458;-86
2021/10/02 09:22:34;;;;;;;17.55;12.60;;;16.60;83.50;;;;;;5051433;28;20065;-87
2021/10/02 09:25:02;;;;;;;17.92;12.65;;;16.70;87.00;;;;;;5043397;28;20052;-86
2021/10/02 09:27:30;;;;;;;17.90;12.85;;;16.90;88.20;;;;;;5048357;28;20112;-86
2021/10/02 09:30:01;;;;;;;18.60;12.30;;;16.80;82.50;;;;;;5054509;28;20021;-86
2021/10/02 09:32:35;;;;;;;18.58;12.65;;;16.80;82.80;;;;;;5053222;28;20075;-86
2021/10/02 09:35:09;;;;;;;18.60;12.45;;;16.70;81.70;;;;;;5052768;28;20033;-86
2021/10/02 09:37:37;;;;;;;16.10;12.05;;;16.70;83.70;;;;;;5052471;28;20386;-86
2021/10/02 09:40:19;;;;;;;18.63;12.20;;;16.70;81.90;;;;;;5051196;28;20040;-86
2021/10/02 09:42:52;;;;;;;17.60;12.03;;;16.80;82.40;;;;;;5053756;28;20032;-86
2021/10/02 09:45:27;;;;;;;19.88;12.20;;;16.90;82.20;;;;;;5053879;28;20064;-87
2021/10/02 09:47:55;;;;;;;18.25;12.13;;;16.90;81.30;;;;;;5054221;28;20104;-86
2021/10/02 09:50:24;;;;;;;17.08;11.27;;;16.90;81.60;;;;;;5052894;28;20056;-87
2021/10/02 09:52:54;;;;;;;15.15;12.02;;;17.00;81.00;;;;;;5052777;28;20474;-86
2021/10/02 09:55:26;;;;;;;15.00;11.00;;;17.00;80.60;;;;;;5054063;28;20028;-85
2021/10/02 09:57:57;;;;;;;14.45;10.82;;;17.00;80.30;;;;;;5053956;28;20032;-87
2021/10/02 10:00:35;;;;;;;17.05;11.75;;;17.00;78.00;;;;;;5054241;28;20088;-87
2021/10/02 10:03:10;;;;;;;17.00;10.88;;;17.10;80.40;;;;;;5052109;28;20040;-87
2021/10/02 10:05:40;;;;;;;15.45;11.63;;;17.20;81.60;;;;;;5053720;28;20024;-86
2021/10/02 10:08:08;;;;;;;16.92;12.45;;;17.40;83.00;;;;;;5052619;28;20433;-87
2021/10/02 10:10:36;;;;;;;15.50;11.43;;;17.50;80.50;;;;;;5053469;28;20025;-86
2021/10/02 10:13:21;;;;;;;19.60;11.98;;;17.50;79.00;;;;;;5053971;28;20033;-87
2021/10/02 10:15:48;;;;;;;17.30;12.15;;;17.50;79.10;;;;;;5052438;28;20092;-86
2021/10/02 10:18:24;;;;;;;14.05;10.45;;;17.50;79.40;;;;;;5052631;28;20021;-86
2021/10/02 10:20:59;;;;;;;15.48;11.88;;;17.40;78.00;;;;;;5052122;28;20020;-87
2021/10/02 10:23:36;;;;;;;15.35;11.20;;;17.30;79.20;;;;;;5052094;28;20029;-86
2021/10/02 10:26:09;;;;;;;15.10;11.98;;;17.40;80.10;;;;;;5053527;28;20028;-86
2021/10/02 10:28:39;;;;;;;15.00;11.15;;;17.50;78.50;;;;;;5053287;28;20094;-86
2021/10/02 10:31:15;;;;;;;14.20;11.57;;;17.60;78.40;;;;;;5052494;28;20397;-86
2021/10/02 10:33:45;;;;;;;13.68;11.25;;;17.80;81.80;;;;;;5052357;28;20382;-87
2021/10/02 10:36:14;;;;;;;15.85;10.57;;;17.80;76.20;;;;;;5052135;28;20025;-86
2021/10/02 10:38:41;;;;;;;15.00;10.85;;;17.90;75.20;;;;;;5052845;28;20515;-87
2021/10/02 10:41:07;;;;;;;16.27;11.32;;;18.00;77.40;;;;;;5051989;28;20025;-87
2021/10/02 10:43:34;;;;;;;14.88;11.27;;;18.00;73.90;;;;;;5051701;28;20037;-86
2021/10/02 10:46:03;;;;;;;14.00;10.85;;;18.00;75.40;;;;;;5053231;28;20481;-87
2021/10/02 10:48:28;;;;;;;17.45;12.15;;;17.90;74.80;;;;;;5053053;28;20059;-87
2021/10/02 10:51:03;;;;;;;18.25;11.90;;;17.90;78.50;;;;;;5052793;28;20067;-86
2021/10/02 10:53:44;;;;;;;15.30;11.40;;;17.90;77.20;;;;;;5051646;28;20021;-86
2021/10/02 10:56:12;;;;;;;19.88;11.75;;;17.60;75.10;;;;;;5051360;28;20427;-87
2021/10/02 10:58:39;;;;;;;13.70;11.18;;;17.50;76.40;;;;;;5051636;28;20036;-86
2021/10/02 11:01:07;;;;;;;16.55;10.82;;;17.40;75.20;;;;;;5051626;28;20032;-85
2021/10/02 11:03:47;;;;;;;17.17;11.77;;;17.30;76.00;;;;;;5051379;28;20040;-86
2021/10/02 11:06:18;;;;;;;15.23;10.05;;;17.40;78.50;;;;;;5052882;28;20498;-86
2021/10/02 11:09:05;;;;;;;15.60;12.35;;;17.60;78.30;;;;;;5052482;28;20490;-86
2021/10/02 11:11:46;;;;;;;16.48;11.85;;;17.80;80.50;;;;;;5051204;28;20021;-86
2021/10/02 11:14:17;;;;;;;17.25;11.35;;;17.90;75.90;;;;;;5052712;28;20059;-86
2021/10/02 11:16:48;;;;;;;19.30;11.90;;;18.00;75.80;;;;;;5052323;28;20033;-86
2021/10/02 11:19:39;;;;;;;15.63;11.50;;;17.90;74.50;;;;;;5051385;28;20024;-85
2021/10/02 11:22:52;;;;;;;14.35;11.38;;;17.80;76.80;;;;;;5052726;28;20104;-86
2021/10/02 11:25:19;;;;;;;;;;;17.70;77.90;;;;;;5051509;28;20044;-86
2021/10/02 11:27:45;;;;;;;15.43;9.93;;;17.80;77.10;;;;;;5051387;28;19905;-86
2021/10/02 11:30:12;;;;;;;12.77;10.10;;;17.80;77.70;;;;;;5051322;28;20032;-86
2021/10/02 11:32:38;;;;;;;13.05;10.20;;;17.90;78.70;;;;;;5051229;28;20025;-86
2021/10/02 11:35:12;;;;;;;13.75;10.40;;;18.00;79.40;;;;;;5052543;28;20518;-86
2021/10/02 11:37:43;;;;;;;27.45;16.08;;;18.10;80.50;;;;;;5051303;28;20021;-86
2021/10/02 11:40:45;;;;;;;13.20;10.37;;;18.10;77.50;;;;;;5053124;28;20035;-86
2021/10/02 11:43:17;;;;;;;14.15;9.80;;;18.30;76.40;;;;;;5013817;28;20041;-85
2021/10/02 11:45:45;;;;;;;15.35;11.15;;;18.30;73.50;;;;;;5048755;28;20435;-86
2021/10/02 11:48:13;;;;;;;15.93;10.82;;;18.20;72.50;;;;;;5051163;28;20037;-86
2021/10/02 11:50:40;;;;;;;13.20;9.95;;;18.30;73.10;;;;;;5051070;28;20029;-86
2021/10/02 11:53:05;;;;;;;14.50;9.73;;;18.50;71.80;;;;;;5052435;28;20025;-86
2021/10/02 11:55:34;;;;;;;31.10;10.60;;;18.50;70.00;;;;;;5052310;28;20095;-86
2021/10/02 11:58:09;;;;;;;12.43;9.10;;;18.40;68.50;;;;;;5051038;28;20029;-86
2021/10/02 12:01:00;;;;;;;15.43;10.60;;;18.20;68.70;;;;;;5050890;28;20029;-86
2021/10/02 12:03:25;;;;;;;12.25;9.98;;;18.30;70.10;;;;;;5053077;28;20568;-86
2021/10/02 12:05:52;;;;;;;18.45;10.77;;;18.40;71.60;;;;;;5056174;28;20025;-86
2021/10/02 12:08:18;;;;;;;12.55;9.85;;;18.40;71.00;;;;;;5055737;28;20029;-86
2021/10/02 12:11:04;;;;;;;12.30;9.93;;;18.30;70.30;;;;;;5056090;28;20094;-86
2021/10/02 12:13:32;;;;;;;19.52;11.43;;;18.20;70.80;;;;;;5054659;28;20035;-86
2021/10/02 12:16:11;;;;;;;16.60;11.73;;;18.20;71.20;;;;;;5054689;28;20021;-86
2021/10/02 12:18:52;;;;;;;14.27;10.77;;;18.20;74.80;;;;;;5054513;28;20048;-86
2021/10/02 12:21:27;;;;;;;13.68;10.80;;;18.40;74.70;;;;;;5054408;28;20079;-86
2021/10/02 12:23:55;;;;;;;14.68;9.52;;;18.50;75.00;;;;;;5054381;28;20040;-86
2021/10/02 12:26:22;;;;;;;14.38;10.05;;;18.70;73.30;;;;;;5055715;28;20112;-86
2021/10/02 12:28:47;;;;;;;14.40;10.38;;;18.80;71.10;;;;;;5034229;28;20136;-86
2021/10/02 12:31:13;;;;;;;14.95;9.57;;;18.90;69.70;;;;;;5035703;28;20503;-86
2021/10/02 12:33:39;;;;;;;11.75;9.68;;;18.90;68.10;;;;;;5050923;28;20021;-86
2021/10/02 12:36:05;;;;;;;11.85;9.48;;;18.90;66.80;;;;;;5049022;28;20111;-85
2021/10/02 12:38:45;;;;;;;13.05;10.30;;;18.90;70.20;;;;;;5054044;28;20630;-86
2021/10/02 12:41:10;;;;;;;15.57;9.80;;;18.90;66.80;;;;;;5055450;28;20090;-86
2021/10/02 12:43:37;;;;;;;12.75;9.52;;;18.90;69.20;;;;;;5053948;28;20033;-86
2021/10/02 12:46:17;;;;;;;18.00;8.95;;;19.00;67.50;;;;;;5055442;28;20067;-85
2021/10/02 12:48:43;;;;;;;15.98;8.30;;;19.00;63.40;;;;;;5054080;28;20367;-86
2021/10/02 12:51:09;;;;;;;10.75;8.02;;;19.00;64.20;;;;;;5055328;28;20025;-86
2021/10/02 12:53:38;;;;;;;53.22;33.40;;;19.00;63.70;;;;;;5055125;28;20111;-86
2021/10/02 12:56:17;;;;;;;14.02;8.60;;;18.90;61.10;;;;;;5055220;28;20025;-86
2021/10/02 12:58:43;;;;;;;12.07;8.82;;;19.00;64.10;;;;;;5053784;28;20512;-86
2021/10/02 13:01:09;;;;;;;13.48;9.45;;;19.00;63.70;;;;;;5053836;28;20140;-86
2021/10/02 13:03:41;;;;;;;9.38;8.30;;;19.00;64.00;;;;;;5053530;28;20029;-86
2021/10/02 13:06:07;;;;;;;14.20;8.82;;;19.00;63.10;;;;;;5054744;28;20021;-86
2021/10/02 13:08:33;;;;;;;17.20;8.80;;;19.10;64.60;;;;;;5054568;28;20497;-86
2021/10/02 13:11:00;;;;;;;13.07;8.77;;;19.00;61.80;;;;;;5054669;28;20017;-86
2021/10/02 13:13:26;;;;;;;9.88;8.48;;;19.20;65.70;;;;;;5053746;28;20029;-86
2021/10/02 13:15:56;;;;;;;12.00;8.90;;;19.20;63.80;;;;;;5052463;28;20393;-86
2021/10/02 13:18:31;;;;;;;10.52;9.02;;;19.10;61.90;;;;;;5052088;28;20509;-85
2021/10/02 13:20:58;;;;;;;9.20;8.25;;;19.20;64.90;;;;;;5053013;28;20029;-86
2021/10/02 13:23:39;;;;;;;13.27;9.65;;;19.20;64.20;;;;;;5053226;28;20087;-86
2021/10/02 13:26:10;;;;;;;11.85;8.95;;;19.10;62.00;;;;;;5053170;28;20524;-86
2021/10/02 13:28:48;;;;;;;12.05;8.43;;;19.20;63.10;;;;;;5053238;28;20381;-85
2021/10/02 13:31:16;;;;;;;10.55;8.10;;;19.20;63.40;;;;;;5053565;28;20379;-86
2021/10/02 13:33:48;;;;;;;12.57;9.90;;;19.20;61.30;;;;;;5053206;28;20025;-86
2021/10/02 13:36:31;;;;;;;14.02;8.88;;;19.20;62.00;;;;;;5053227;28;20024;-86
2021/10/02 13:39:18;;;;;;;13.82;8.48;;;19.20;61.30;;;;;;5052878;28;20039;-86
2021/10/02 13:41:49;;;;;;;11.07;8.75;;;19.30;62.30;;;;;;5053684;28;20482;-86
2021/10/02 13:44:26;;;;;;;13.00;9.35;;;19.30;64.00;;;;;;5052967;28;20037;-86
2021/10/02 13:46:54;;;;;;;11.05;8.10;;;19.20;62.60;;;;;;5052934;28;20032;-86